CheckWX is a tool to help pilots better visualize weather data.  It is not intended as a substitute for an official pre-flight weather briefing.

18:25:31 UTC

KMEZ METAR
Mena Intermountain Municipal Airport
Mena, Arkansas, USA
Current

31 mins ago

KMEZ 161755Z AUTO 00000KT 10SM OVC015 15/12 A3005 RMK AO2
Observed
Feb-16 @ 17:55 UTC
Visibility
10 SM
Flight Rules
MVFR
Cloud Levels
  • Overcast at 1,500' AGL
Temperature
15°C / 59°F
Dewpoint
12°C / 54°F
Humidity
82%
Altimeter
30.05" Hg
Pressure
1017.62 hPa
Previous

51 mins ago

KMEZ 161735Z AUTO 20003KT 10SM OVC015 15/12 A3006 RMK AO2
Observed
Feb-16 @ 17:35 UTC
Wind
  • 200° at 3 KTS
Visibility
10 SM
Flight Rules
MVFR
Cloud Levels
  • Overcast at 1,500' AGL
Temperature
15°C / 59°F
Dewpoint
12°C / 54°F
Humidity
82%
Altimeter
30.06" Hg
Pressure
1017.92 hPa
Previous

1 hour ago

KMEZ 161715Z AUTO 20003KT 10SM OVC013 15/12 A3006 RMK AO2
Observed
Feb-16 @ 17:15 UTC
Wind
  • 200° at 3 KTS
Visibility
10 SM
Flight Rules
MVFR
Cloud Levels
  • Overcast at 1,300' AGL
Temperature
15°C / 59°F
Dewpoint
12°C / 54°F
Humidity
82%
Altimeter
30.06" Hg
Pressure
1017.92 hPa